Aviation Digital Data Service (ADDS)

Output produced by METARs form (0341 UTC 26 April 2019)
found at http://www.aviationweather.gov/metar/data/
 
METAR text: MGSJ 260000Z 27004KT 8000 SCT020 OVC070 30/24 Q1011 A2985 PCPN NNE/NE
Conditions at: MGSJ (SAN JOSE (CIV/M , GT) observed 0000 UTC 26 April 2019
Temperature: 30.0°C (86°F)
Dewpoint: 24.0°C (75°F) [RH = 70%]
Pressure (altimeter): 29.85 inches Hg (1011.0 mb)
Winds: from the W (270 degrees) at 5 MPH (4 knots; 2.1 m/s)
Visibility: 5 miles ( 8 km)
Ceiling: 7000 feet AGL
Clouds: scattered clouds at 2000 feet AGL
overcast cloud deck at 7000 feet AGL
Weather: no significant weather observed at this time

METAR text: MGSJ 252300Z 22006KT 8000 VCSH SCT020 BKN070 31/24 Q1010 A2983 PCPN N/NNW
Conditions at: MGSJ (SAN JOSE (CIV/M , GT) observed 2300 UTC 25 April 2019
Temperature: 31.0°C (88°F)
Dewpoint: 24.0°C (75°F) [RH = 66%]
Pressure (altimeter): 29.82 inches Hg (1010.0 mb)
Winds: from the SW (220 degrees) at 7 MPH (6 knots; 3.1 m/s)
Visibility: 5 miles ( 8 km)
Ceiling: 7000 feet AGL
Clouds: scattered clouds at 2000 feet AGL
broken clouds at 7000 feet AGL
Weather: VCSH  (showers in vicinity)

METAR text: MGSJ 252200Z 20012KT 8000 VCSH BKN020 33/22 Q1010 A2983 PCPN N/NNE/NE
Conditions at: MGSJ (SAN JOSE (CIV/M , GT) observed 2200 UTC 25 April 2019
Temperature: 33.0°C (91°F)
Dewpoint: 22.0°C (72°F) [RH = 53%]
Pressure (altimeter): 29.82 inches Hg (1010.0 mb)
Winds: from the SSW (200 degrees) at 14 MPH (12 knots; 6.2 m/s)
Visibility: 5 miles ( 8 km)
Ceiling: 2000 feet AGL
Clouds: broken clouds at 2000 feet AGL
Weather: VCSH  (showers in vicinity)

METAR text: MGSJ 252100Z 20012KT 7000 SCT020 33/24 Q1010 A2983 HZ
Conditions at: MGSJ (SAN JOSE (CIV/M , GT) observed 2100 UTC 25 April 2019
Temperature: 33.0°C (91°F)
Dewpoint: 24.0°C (75°F) [RH = 59%]
Pressure (altimeter): 29.82 inches Hg (1010.0 mb)
Winds: from the SSW (200 degrees) at 14 MPH (12 knots; 6.2 m/s)
Visibility: 4 miles ( 7 km)
Ceiling: at least 12,000 feet AGL
Clouds: scattered clouds at 2000 feet AGL
Weather: HZ  (haze)

METAR text: MGSJ 252000Z 20012KT 7000 SCT020 33/24 Q1010 A2983 HZ
Conditions at: MGSJ (SAN JOSE (CIV/M , GT) observed 2000 UTC 25 April 2019
Temperature: 33.0°C (91°F)
Dewpoint: 24.0°C (75°F) [RH = 59%]
Pressure (altimeter): 29.82 inches Hg (1010.0 mb)
Winds: from the SSW (200 degrees) at 14 MPH (12 knots; 6.2 m/s)
Visibility: 4 miles ( 7 km)
Ceiling: at least 12,000 feet AGL
Clouds: scattered clouds at 2000 feet AGL
Weather: HZ  (haze)

METAR text: MGSJ 251900Z 18010KT 7000 FEW020 SCT070 34/23 Q1011 A2985 FU
Conditions at: MGSJ (SAN JOSE (CIV/M , GT) observed 1900 UTC 25 April 2019
Temperature: 34.0°C (93°F)
Dewpoint: 23.0°C (73°F) [RH = 53%]
Pressure (altimeter): 29.85 inches Hg (1011.0 mb)
Winds: from the S (180 degrees) at 12 MPH (10 knots; 5.1 m/s)
Visibility: 4 miles ( 7 km)
Ceiling: at least 12,000 feet AGL
Clouds: few clouds at 2000 feet AGL
scattered clouds at 7000 feet AGL
Weather: FU  (smoke)

METAR text: MGSJ 251800Z 18010KT 7000 FEW020 BKN070 36/23 Q1012 A2988 HZ
Conditions at: MGSJ (SAN JOSE (CIV/M , GT) observed 1800 UTC 25 April 2019
Temperature: 36.0°C (97°F)
Dewpoint: 23.0°C (73°F) [RH = 47%]
Pressure (altimeter): 29.88 inches Hg (1012.0 mb)
Winds: from the S (180 degrees) at 12 MPH (10 knots; 5.1 m/s)
Visibility: 4 miles ( 7 km)
Ceiling: 7000 feet AGL
Clouds: few clouds at 2000 feet AGL
broken clouds at 7000 feet AGL
Weather: HZ  (haze)

METAR text: MGSJ 251700Z 20008KT 7000 BKN020 35/21 Q1013 A2991 HZ
Conditions at: MGSJ (SAN JOSE (CIV/M , GT) observed 1700 UTC 25 April 2019
Temperature: 35.0°C (95°F)
Dewpoint: 21.0°C (70°F) [RH = 44%]
Pressure (altimeter): 29.91 inches Hg (1013.0 mb)
Winds: from the SSW (200 degrees) at 9 MPH (8 knots; 4.1 m/s)
Visibility: 4 miles ( 7 km)
Ceiling: 2000 feet AGL
Clouds: broken clouds at 2000 feet AGL
Weather: HZ  (haze)

METAR text: MGSJ 251600Z 22008KT 8000 BKN020 33/23 Q1013 A2991 HZ
Conditions at: MGSJ (SAN JOSE (CIV/M , GT) observed 1600 UTC 25 April 2019
Temperature: 33.0°C (91°F)
Dewpoint: 23.0°C (73°F) [RH = 56%]
Pressure (altimeter): 29.91 inches Hg (1013.0 mb)
Winds: from the SW (220 degrees) at 9 MPH (8 knots; 4.1 m/s)
Visibility: 5 miles ( 8 km)
Ceiling: 2000 feet AGL
Clouds: broken clouds at 2000 feet AGL
Weather: HZ  (haze)

METAR text: MGSJ 251500Z 00000KT 8000 BKN020 30/24 Q1013 A2991 HZ
Conditions at: MGSJ (SAN JOSE (CIV/M , GT) observed 1500 UTC 25 April 2019
Temperature: 30.0°C (86°F)
Dewpoint: 24.0°C (75°F) [RH = 70%]
Pressure (altimeter): 29.91 inches Hg (1013.0 mb)
Winds: calm
Visibility: 5 miles ( 8 km)
Ceiling: 2000 feet AGL
Clouds: broken clouds at 2000 feet AGL
Weather: HZ  (haze)

METAR text: MGSJ 251400Z 00000KT 8000 BKN020 26/23 Q1013 A2991 HZ
Conditions at: MGSJ (SAN JOSE (CIV/M , GT) observed 1400 UTC 25 April 2019
Temperature: 26.0°C (79°F)
Dewpoint: 23.0°C (73°F) [RH = 84%]
Pressure (altimeter): 29.91 inches Hg (1013.0 mb)
Winds: calm
Visibility: 5 miles ( 8 km)
Ceiling: 2000 feet AGL
Clouds: broken clouds at 2000 feet AGL
Weather: HZ  (haze)

METAR text: MGSJ 251300Z 00000KT 6000 BKN020 25/24 Q1012 A2988 BR
Conditions at: MGSJ (SAN JOSE (CIV/M , GT) observed 1300 UTC 25 April 2019
Temperature: 25.0°C (77°F)
Dewpoint: 24.0°C (75°F) [RH = 94%]
Pressure (altimeter): 29.88 inches Hg (1012.0 mb)
Winds: calm
Visibility: 4 miles ( 6 km)
Ceiling: 2000 feet AGL
Clouds: broken clouds at 2000 feet AGL
Weather: BR  (mist)

METAR text: MGSJ 251200Z 00000KT 7000 SCT020 BKN070 24/23 Q1011 A2985 BR
Conditions at: MGSJ (SAN JOSE (CIV/M , GT) observed 1200 UTC 25 April 2019
Temperature: 24.0°C (75°F)
Dewpoint: 23.0°C (73°F) [RH = 94%]
Pressure (altimeter): 29.85 inches Hg (1011.0 mb)
Winds: calm
Visibility: 4 miles ( 7 km)
Ceiling: 7000 feet AGL
Clouds: scattered clouds at 2000 feet AGL
broken clouds at 7000 feet AGL
Weather: BR  (mist)

METAR text: MGSJ 250000Z 00000KT 8000 VCSH BKN018 FEW030CB 30/24 Q1010 A2983 CB/PCPN N/NNE
Conditions at: MGSJ (SAN JOSE (CIV/M , GT) observed 0000 UTC 25 April 2019
Temperature: 30.0°C (86°F)
Dewpoint: 24.0°C (75°F) [RH = 70%]
Pressure (altimeter): 29.82 inches Hg (1010.0 mb)
Winds: calm
Visibility: 5 miles ( 8 km)
Ceiling: 1800 feet AGL
Clouds: broken clouds at 1800 feet AGL
few clouds at 3000 feet AGL
Weather: VCSH  (showers in vicinity)

METAR text: MGSJ 242300Z 20006KT 8000 TS BKN022 FEW030CB 30/24 Q1009 A2980 HZ CB/TS N/NNE
Conditions at: MGSJ (SAN JOSE (CIV/M , GT) observed 2300 UTC 24 April 2019
Temperature: 30.0°C (86°F)
Dewpoint: 24.0°C (75°F) [RH = 70%]
Pressure (altimeter): 29.79 inches Hg (1009.0 mb)
Winds: from the SSW (200 degrees) at 7 MPH (6 knots; 3.1 m/s)
Visibility: 5 miles ( 8 km)
Ceiling: 2200 feet AGL
Clouds: broken clouds at 2200 feet AGL
few clouds at 3000 feet AGL
Weather: TS HZ TS  (thunderstorm, haze, thunderstorm)

METAR text: MGSJ 242200Z 20008KT 8000 FEW016 31/25 Q1009 A2980 FU
Conditions at: MGSJ (SAN JOSE (CIV/M , GT) observed 2200 UTC 24 April 2019
Temperature: 31.0°C (88°F)
Dewpoint: 25.0°C (77°F) [RH = 71%]
Pressure (altimeter): 29.79 inches Hg (1009.0 mb)
Winds: from the SSW (200 degrees) at 9 MPH (8 knots; 4.1 m/s)
Visibility: 5 miles ( 8 km)
Ceiling: at least 12,000 feet AGL
Clouds: few clouds at 1600 feet AGL
Weather: FU  (smoke)

METAR text: MGSJ 242100Z 18012KT 8000 FEW020 33/24 Q1009 A2980 FU
Conditions at: MGSJ (SAN JOSE (CIV/M , GT) observed 2100 UTC 24 April 2019
Temperature: 33.0°C (91°F)
Dewpoint: 24.0°C (75°F) [RH = 59%]
Pressure (altimeter): 29.79 inches Hg (1009.0 mb)
Winds: from the S (180 degrees) at 14 MPH (12 knots; 6.2 m/s)
Visibility: 5 miles ( 8 km)
Ceiling: at least 12,000 feet AGL
Clouds: few clouds at 2000 feet AGL
Weather: FU  (smoke)

METAR text: MGSJ 242000Z 18012KT 8000 FEW018 33/25 Q1010 A2983 FU
Conditions at: MGSJ (SAN JOSE (CIV/M , GT) observed 2000 UTC 24 April 2019
Temperature: 33.0°C (91°F)
Dewpoint: 25.0°C (77°F) [RH = 63%]
Pressure (altimeter): 29.82 inches Hg (1010.0 mb)
Winds: from the S (180 degrees) at 14 MPH (12 knots; 6.2 m/s)
Visibility: 5 miles ( 8 km)
Ceiling: at least 12,000 feet AGL
Clouds: few clouds at 1800 feet AGL
Weather: FU  (smoke)

METAR text: MGSJ 241900Z 18012KT 8000 FEW018 33/25 Q1011 A2985 FU
Conditions at: MGSJ (SAN JOSE (CIV/M , GT) observed 1900 UTC 24 April 2019
Temperature: 33.0°C (91°F)
Dewpoint: 25.0°C (77°F) [RH = 63%]
Pressure (altimeter): 29.85 inches Hg (1011.0 mb)
Winds: from the S (180 degrees) at 14 MPH (12 knots; 6.2 m/s)
Visibility: 5 miles ( 8 km)
Ceiling: at least 12,000 feet AGL
Clouds: few clouds at 1800 feet AGL
Weather: FU  (smoke)

METAR text: MGSJ 241800Z 18012KT 8000 FEW018 33/24 Q1012 A2988 FU METAR
Conditions at: MGSJ (SAN JOSE (CIV/M , GT) observed 1800 UTC 24 April 2019
Temperature: 33.0°C (91°F)
Dewpoint: 24.0°C (75°F) [RH = 59%]
Pressure (altimeter): 29.88 inches Hg (1012.0 mb)
Winds: from the S (180 degrees) at 14 MPH (12 knots; 6.2 m/s)
Visibility: 5 miles ( 8 km)
Ceiling: at least 12,000 feet AGL
Clouds: few clouds at 1800 feet AGL
Weather: FU  (smoke)

METAR text: MGSJ 241700Z 18008KT 7000 BKN018 32/24 Q1013 A2991 FU
Conditions at: MGSJ (SAN JOSE (CIV/M , GT) observed 1700 UTC 24 April 2019
Temperature: 32.0°C (90°F)
Dewpoint: 24.0°C (75°F) [RH = 63%]
Pressure (altimeter): 29.91 inches Hg (1013.0 mb)
Winds: from the S (180 degrees) at 9 MPH (8 knots; 4.1 m/s)
Visibility: 4 miles ( 7 km)
Ceiling: 1800 feet AGL
Clouds: broken clouds at 1800 feet AGL
Weather: FU  (smoke)

METAR text: MGSJ 241600Z 23004KT 6000 SCT018 32/25 Q1013 A2991 FU
Conditions at: MGSJ (SAN JOSE (CIV/M , GT) observed 1600 UTC 24 April 2019
Temperature: 32.0°C (90°F)
Dewpoint: 25.0°C (77°F) [RH = 67%]
Pressure (altimeter): 29.91 inches Hg (1013.0 mb)
Winds: from the SW (230 degrees) at 5 MPH (4 knots; 2.1 m/s)
Visibility: 4 miles ( 6 km)
Ceiling: at least 12,000 feet AGL
Clouds: scattered clouds at 1800 feet AGL
Weather: FU  (smoke)

Forecast for: MGSJ (SAN JOSE (CIV/M , GT)
Text: TAF MGSJ 252300Z 2600/2624 00000KT CAVOK TX34/2620Z TN23/2612Z
Forecast period: 0000 to 1500 UTC 26 April 2019
Forecast type: FROM: standard forecast or significant change
Winds: calm
Visibility: 6 or more miles 10+ km)
Ceiling: unknown
Clouds: missing
Weather: no significant weather forecast for this period
Text: BECMG 2615/2616 18008KT
Forecast period: 1500 UTC 26 April 2019 to 0000 UTC 27 April 2019
Forecast type: BECOMING: Conditions expected to become as follows by 1600 UTC 26 April 2019
Winds: from the S (180 degrees) at 9 MPH (8 knots; 4.1 m/s)
Visibility: 6 or more miles 10+ km)
Ceiling: unknown
Clouds: missing
Weather: no significant weather forecast for this period
Text: TEMPO 2620/2624 22012KT FEW020TCU
Forecast period: 2000 UTC 26 April 2019 to 0000 UTC 27 April 2019
Forecast type: TEMPORARY: The following changes expected for less than half the time period
Winds: from the SW (220 degrees) at 14 MPH (12 knots; 6.2 m/s)
Visibility: missing
Ceiling: at least 12,000 feet AGL
Clouds: few clouds at 2000 feet AGL
Weather: no significant weather forecast for this period